createdAt,value
2019-02-02T00:01:24.095Z,11.40
2019-02-02T00:03:53.310Z,19.07
2019-02-02T00:06:22.328Z,11.53
2019-02-02T00:08:51.404Z,11.20
2019-02-02T00:11:20.478Z,10.63
2019-02-02T00:13:49.531Z,11.20
2019-02-02T00:16:18.693Z,10.90
2019-02-02T00:18:47.758Z,11.70
2019-02-02T00:21:16.870Z,12.10
2019-02-02T00:23:45.914Z,13.63
2019-02-02T00:26:14.870Z,12.57
2019-02-02T00:28:44.215Z,10.70
2019-02-02T00:31:13.385Z,15.13
2019-02-02T00:33:42.383Z,12.30
2019-02-02T00:36:11.788Z,11.53
2019-02-02T00:38:40.847Z,12.00
2019-02-02T00:41:10.836Z,12.03
2019-02-02T00:43:39.883Z,11.87
2019-02-02T00:46:09.370Z,10.17
2019-02-02T00:48:38.513Z,10.43
2019-02-02T00:51:07.513Z,12.27
2019-02-02T00:53:36.579Z,11.57
2019-02-02T00:56:06.634Z,11.13
2019-02-02T00:58:36.044Z,11.67
2019-02-02T01:01:06.109Z,12.07
2019-02-02T01:03:35.198Z,10.87
2019-02-02T01:06:05.166Z,15.97
2019-02-02T01:08:34.746Z,10.70
2019-02-02T01:11:04.579Z,11.57
2019-02-02T01:13:34.005Z,15.13
2019-02-02T01:16:03.436Z,10.87
2019-02-02T01:18:32.831Z,14.87
2019-02-02T01:21:02.050Z,11.30
2019-02-02T01:23:31.474Z,11.87
2019-02-02T01:26:00.528Z,11.07
2019-02-02T01:28:29.560Z,11.47
2019-02-02T01:30:58.625Z,11.97
2019-02-02T01:33:27.738Z,16.17
2019-02-02T01:35:56.805Z,11.87
2019-02-02T01:38:25.855Z,10.77
2019-02-02T01:40:55.406Z,11.97
2019-02-02T01:43:25.754Z,11.70
2019-02-02T01:45:54.806Z,10.27
2019-02-02T01:48:23.848Z,10.90
2019-02-02T01:50:53.236Z,10.27
2019-02-02T01:53:22.286Z,10.53
2019-02-02T01:55:51.236Z,10.23
2019-02-02T01:58:20.270Z,11.50
2019-02-02T02:00:49.584Z,12.17
2019-02-02T02:03:18.949Z,10.93
2019-02-02T02:05:48.343Z,10.40
2019-02-02T02:08:17.383Z,10.73
2019-02-02T02:10:46.727Z,10.80
2019-02-02T02:13:15.794Z,12.00
2019-02-02T02:15:44.848Z,11.87
2019-02-02T02:18:14.172Z,11.73
2019-02-02T02:20:43.817Z,11.70
2019-02-02T02:23:12.886Z,21.80
2019-02-02T02:25:41.915Z,14.47
2019-02-02T02:28:10.964Z,13.77
2019-02-02T02:30:40.032Z,13.00
2019-02-02T02:33:09.318Z,11.90
2019-02-02T02:35:38.328Z,11.90
2019-02-02T02:38:07.613Z,12.03
2019-02-02T02:40:37.014Z,11.77
2019-02-02T02:43:06.222Z,13.30
2019-02-02T02:45:35.246Z,11.97
2019-02-02T02:48:04.663Z,12.73
2019-02-02T02:50:33.709Z,13.43
2019-02-02T02:53:02.780Z,14.00
2019-02-02T02:55:31.762Z,13.27
2019-02-02T02:58:00.781Z,12.93
2019-02-02T03:00:29.834Z,13.63
2019-02-02T03:02:58.912Z,12.70
2019-02-02T03:05:28.006Z,12.87
2019-02-02T03:07:57.124Z,14.23
2019-02-02T03:10:26.814Z,14.03
2019-02-02T03:12:56.161Z,13.90
2019-02-02T03:15:25.245Z,13.30
2019-02-02T03:17:54.579Z,13.37
2019-02-02T03:20:24.112Z,14.17
2019-02-02T03:22:53.261Z,13.40
2019-02-02T03:25:23.812Z,14.37
2019-02-02T03:27:53.131Z,13.53
2019-02-02T03:30:22.403Z,13.90
2019-02-02T03:32:51.529Z,13.23
2019-02-02T03:35:22.690Z,13.57
2019-02-02T03:37:51.761Z,14.43
2019-02-02T03:40:21.965Z,14.33
2019-02-02T03:42:51.148Z,13.73
2019-02-02T03:45:21.878Z,12.87
2019-02-02T03:47:52.287Z,14.07
2019-02-02T03:50:21.334Z,14.17
2019-02-02T03:52:51.021Z,14.17
2019-02-02T03:55:20.070Z,13.67
2019-02-02T03:57:49.428Z,15.20
2019-02-02T04:00:19.845Z,15.07
2019-02-02T04:02:49.644Z,14.10
2019-02-02T04:05:21.284Z,15.47
2019-02-02T04:07:50.772Z,14.43
2019-02-02T04:10:19.966Z,16.70
2019-02-02T04:12:49.037Z,14.40
2019-02-02T04:15:18.722Z,16.17
2019-02-02T04:17:47.824Z,15.17
2019-02-02T04:20:18.931Z,16.27
2019-02-02T04:22:48.175Z,16.13
2019-02-02T04:25:18.472Z,16.53
2019-02-02T04:27:47.532Z,16.53
2019-02-02T04:30:18.916Z,17.90
2019-02-02T04:32:48.244Z,17.83
2019-02-02T04:35:17.363Z,15.77
2019-02-02T04:37:46.683Z,16.23
2019-02-02T04:40:15.964Z,16.43
2019-02-02T04:42:45.118Z,15.23
2019-02-02T04:45:14.590Z,15.93
2019-02-02T04:47:43.643Z,15.60
2019-02-02T04:50:14.431Z,15.23
2019-02-02T04:52:43.889Z,14.23
2019-02-02T04:55:14.531Z,15.17
2019-02-02T04:57:43.573Z,15.33
2019-02-02T05:00:19.018Z,13.90
2019-02-02T05:02:48.130Z,14.97
2019-02-02T05:05:17.198Z,14.70
2019-02-02T05:07:46.800Z,14.13
2019-02-02T05:10:17.652Z,14.30
2019-02-02T05:12:46.704Z,13.50
2019-02-02T05:15:16.146Z,13.13
2019-02-02T05:17:45.172Z,14.20
2019-02-02T05:20:15.230Z,14.30
2019-02-02T05:22:44.940Z,14.10
2019-02-02T05:25:14.161Z,14.83
2019-02-02T05:27:43.213Z,13.30
2019-02-02T05:30:15.974Z,14.30
2019-02-02T05:32:45.089Z,14.27
2019-02-02T05:35:14.160Z,13.80
2019-02-02T05:37:45.489Z,14.93
2019-02-02T05:40:15.671Z,14.50
2019-02-02T05:42:44.731Z,13.93
2019-02-02T05:45:16.343Z,13.73
2019-02-02T05:47:45.690Z,13.03
2019-02-02T05:50:16.853Z,12.37
2019-02-02T05:52:45.872Z,13.90
2019-02-02T05:55:18.696Z,13.07
2019-02-02T05:57:48.289Z,14.03
2019-02-02T06:00:37.810Z,13.43
2019-02-02T06:03:06.858Z,13.53
2019-02-02T06:05:35.919Z,13.40
2019-02-02T06:08:05.096Z,14.43
2019-02-02T06:10:34.155Z,13.33
2019-02-02T06:13:03.179Z,13.53
2019-02-02T06:15:32.236Z,13.33
2019-02-02T06:18:01.276Z,14.73
2019-02-02T06:20:30.321Z,13.63
2019-02-02T06:22:59.399Z,14.53
2019-02-02T06:25:28.515Z,15.70
2019-02-02T06:27:57.721Z,14.57
2019-02-02T06:30:27.034Z,14.23
2019-02-02T06:32:56.111Z,14.10
2019-02-02T06:35:25.639Z,13.80
2019-02-02T06:37:54.717Z,12.83
2019-02-02T06:40:23.668Z,12.73
2019-02-02T06:42:52.628Z,12.83
2019-02-02T06:45:30.542Z,12.43
2019-02-02T06:47:59.597Z,33.37
2019-02-02T06:50:28.690Z,11.97
2019-02-02T06:52:58.330Z,12.33
2019-02-02T06:55:27.640Z,10.53
2019-02-02T06:57:56.858Z,11.27
2019-02-02T07:00:26.622Z,12.33
2019-02-02T07:02:56.127Z,11.00
2019-02-02T07:05:25.171Z,10.97
2019-02-02T07:07:54.578Z,11.77
2019-02-02T07:10:25.522Z,11.37
2019-02-02T07:12:54.682Z,11.40
2019-02-02T07:15:25.941Z,11.83
2019-02-02T07:17:55.172Z,10.37
2019-02-02T07:20:24.374Z,10.90
2019-02-02T07:22:53.406Z,10.13
2019-02-02T07:25:22.418Z,9.70
2019-02-02T07:27:52.679Z,9.73
2019-02-02T07:30:28.593Z,8.90
2019-02-02T07:32:53.950Z,8.33
2019-02-02T07:35:23.012Z,8.63
2019-02-02T07:37:54.120Z,9.30
2019-02-02T07:40:23.192Z,8.73
2019-02-02T07:42:52.281Z,8.73
2019-02-02T07:45:23.577Z,8.30
2019-02-02T07:47:52.685Z,7.97
2019-02-02T07:50:22.349Z,7.90
2019-02-02T07:52:51.420Z,7.83
2019-02-02T07:55:20.594Z,8.47
2019-02-02T07:57:49.937Z,8.67
2019-02-02T08:00:41.160Z,8.13
2019-02-02T08:03:09.612Z,8.40
2019-02-02T08:05:39.280Z,8.03
2019-02-02T08:08:08.308Z,8.47
2019-02-02T08:10:37.626Z,9.57
2019-02-02T08:13:07.334Z,8.40
2019-02-02T08:15:36.407Z,9.00
2019-02-02T08:18:06.040Z,8.23
2019-02-02T08:20:35.414Z,8.60
2019-02-02T08:23:04.800Z,8.53
2019-02-02T08:25:34.145Z,8.67
2019-02-02T08:28:03.300Z,8.63
2019-02-02T08:30:35.791Z,7.63
2019-02-02T08:33:04.728Z,8.10
2019-02-02T08:35:33.747Z,8.97
2019-02-02T08:38:03.109Z,8.20
2019-02-02T08:40:32.678Z,8.27
2019-02-02T08:43:01.718Z,8.23
2019-02-02T08:45:30.742Z,9.90
2019-02-02T08:47:59.960Z,8.80
2019-02-02T08:50:31.494Z,8.57
2019-02-02T08:53:00.591Z,10.00
2019-02-02T08:55:31.656Z,8.93
2019-02-02T08:58:01.110Z,9.23
2019-02-02T09:00:30.190Z,9.13
2019-02-02T09:02:59.797Z,7.57
2019-02-02T09:05:28.894Z,8.60
2019-02-02T09:07:57.932Z,10.00
2019-02-02T09:10:28.275Z,8.50
2019-02-02T09:12:57.738Z,8.53
2019-02-02T09:15:27.053Z,7.13
2019-02-02T09:17:58.414Z,7.47
2019-02-02T09:20:27.837Z,8.00
2019-02-02T09:23:06.038Z,11.33
2019-02-02T09:25:28.085Z,11.67
2019-02-02T09:27:57.459Z,13.50
2019-02-02T09:30:28.810Z,12.97
2019-02-02T09:32:57.837Z,13.27
2019-02-02T09:35:27.170Z,13.93
2019-02-02T09:37:56.128Z,12.63
2019-02-02T09:40:26.471Z,13.83
2019-02-02T09:42:55.891Z,13.37
2019-02-02T09:45:25.371Z,14.73
2019-02-02T09:47:54.536Z,15.03
2019-02-02T09:50:24.921Z,15.83
2019-02-02T09:52:54.521Z,14.83
2019-02-02T09:55:24.010Z,14.77
2019-02-02T09:57:55.655Z,15.53
2019-02-02T10:00:27.066Z,15.50
2019-02-02T10:02:57.025Z,15.00
2019-02-02T10:05:26.860Z,15.63
2019-02-02T10:07:56.145Z,14.33
2019-02-02T10:10:26.929Z,14.87
2019-02-02T10:12:56.065Z,14.53
2019-02-02T10:15:25.188Z,14.00
2019-02-02T10:17:54.468Z,13.77
2019-02-02T10:20:25.289Z,13.57
2019-02-02T10:22:54.574Z,13.87
2019-02-02T10:25:25.599Z,13.50
2019-02-02T10:27:54.891Z,13.47
2019-02-02T10:30:38.551Z,13.10
2019-02-02T10:33:07.811Z,12.50
2019-02-02T10:35:37.183Z,14.77
2019-02-02T10:38:06.923Z,14.50
2019-02-02T10:40:36.073Z,15.17
2019-02-02T10:43:05.508Z,14.67
2019-02-02T10:45:35.317Z,19.40
2019-02-02T10:48:04.456Z,18.37
2019-02-02T10:50:33.629Z,16.03
2019-02-02T10:53:02.727Z,15.27
2019-02-02T10:55:31.756Z,15.93
2019-02-02T10:58:00.802Z,15.77
2019-02-02T11:00:32.628Z,15.80
2019-02-02T11:03:01.981Z,15.30
2019-02-02T11:05:31.207Z,17.27
2019-02-02T11:08:00.461Z,15.87
2019-02-02T11:10:31.306Z,16.20
2019-02-02T11:13:01.972Z,17.20
2019-02-02T11:15:31.120Z,17.30
2019-02-02T11:18:00.229Z,18.77
2019-02-02T11:20:31.311Z,20.43
2019-02-02T11:23:00.504Z,18.10
2019-02-02T11:25:29.673Z,18.37
2019-02-02T11:27:59.059Z,16.93
2019-02-02T11:30:29.079Z,17.97
2019-02-02T11:32:58.606Z,18.83
2019-02-02T11:35:27.684Z,16.20
2019-02-02T11:37:57.104Z,16.80
2019-02-02T11:40:28.319Z,16.57
2019-02-02T11:42:57.469Z,16.50
2019-02-02T11:45:26.949Z,16.90
2019-02-02T11:47:56.049Z,16.77
2019-02-02T11:50:25.147Z,16.37
2019-02-02T11:52:54.489Z,15.93
2019-02-02T11:55:23.640Z,16.73
2019-02-02T11:57:52.756Z,16.83
2019-02-02T12:00:24.194Z,16.57
2019-02-02T12:02:53.269Z,16.67
2019-02-02T12:05:22.979Z,17.40
2019-02-02T12:07:52.368Z,17.07
2019-02-02T12:10:22.664Z,15.10
2019-02-02T12:12:51.626Z,15.30
2019-02-02T12:15:20.677Z,14.37
2019-02-02T12:17:50.140Z,13.20
2019-02-02T12:20:19.367Z,13.83
2019-02-02T12:22:48.562Z,16.67
2019-02-02T12:25:18.019Z,15.00
2019-02-02T12:27:47.284Z,14.67
2019-02-02T12:30:21.306Z,13.23
2019-02-02T12:32:50.771Z,13.37
2019-02-02T12:35:21.624Z,14.97
2019-02-02T12:37:50.735Z,15.03
2019-02-02T12:40:20.458Z,14.57
2019-02-02T12:42:49.553Z,15.93
2019-02-02T12:45:21.332Z,14.57
2019-02-02T12:47:50.387Z,14.87
2019-02-02T12:50:19.389Z,13.97
2019-02-02T12:52:48.478Z,15.83
2019-02-02T12:55:17.500Z,14.90
2019-02-02T12:57:46.620Z,15.93
2019-02-02T13:00:17.345Z,16.07
2019-02-02T13:02:46.563Z,17.20
2019-02-02T13:05:17.545Z,17.70
2019-02-02T13:07:46.835Z,17.93
2019-02-02T13:10:18.799Z,18.00
2019-02-02T13:12:47.992Z,18.43
2019-02-02T13:15:17.488Z,20.63
2019-02-02T13:17:46.930Z,23.60
2019-02-02T13:20:16.575Z,22.87
2019-02-02T13:22:46.020Z,21.43
2019-02-02T13:25:16.896Z,20.77
2019-02-02T13:27:46.040Z,21.73
2019-02-02T13:30:26.570Z,21.17
2019-02-02T13:32:55.625Z,21.57
2019-02-02T13:35:24.748Z,22.33
2019-02-02T13:37:54.243Z,20.87
2019-02-02T13:40:24.178Z,20.87
2019-02-02T13:42:53.398Z,21.40
2019-02-02T13:45:22.485Z,20.67
2019-02-02T13:47:51.734Z,21.70
2019-02-02T13:50:20.877Z,21.80
2019-02-02T13:52:50.693Z,21.10
2019-02-02T13:55:19.767Z,22.63
2019-02-02T13:57:49.073Z,22.57
2019-02-02T14:00:29.314Z,21.47
2019-02-02T14:03:02.982Z,22.43
2019-02-02T14:05:29.186Z,22.37
2019-02-02T14:08:00.274Z,21.93
2019-02-02T14:10:30.920Z,22.90
2019-02-02T14:12:59.923Z,21.70
2019-02-02T14:15:28.967Z,22.07
2019-02-02T14:17:58.041Z,21.90
2019-02-02T14:20:27.198Z,25.93
2019-02-02T14:22:56.423Z,22.90
2019-02-02T14:25:25.846Z,26.17
2019-02-02T14:27:54.878Z,23.27
2019-02-02T14:30:25.398Z,21.20
2019-02-02T14:32:55.319Z,21.33
2019-02-02T14:35:26.061Z,23.23
2019-02-02T14:37:55.089Z,21.30
2019-02-02T14:40:24.126Z,21.03
2019-02-02T14:42:53.158Z,21.90
2019-02-02T14:45:23.284Z,21.57
2019-02-02T14:47:55.538Z,22.00
2019-02-02T14:50:23.360Z,21.00
2019-02-02T14:52:52.876Z,22.07
2019-02-02T14:55:26.823Z,22.97
2019-02-02T14:57:55.844Z,24.13
2019-02-02T15:00:26.827Z,23.70
2019-02-02T15:02:56.780Z,23.97
2019-02-02T15:05:26.525Z,23.63
2019-02-02T15:07:55.851Z,24.40
2019-02-02T15:10:25.880Z,24.90
2019-02-02T15:12:54.925Z,24.23
2019-02-02T15:15:23.959Z,23.17
2019-02-02T15:17:53.309Z,23.47
2019-02-02T15:20:33.904Z,24.23
2019-02-02T15:23:02.909Z,24.40
2019-02-02T15:25:32.015Z,23.03
2019-02-02T15:28:01.054Z,23.80
2019-02-02T15:30:30.633Z,23.43
2019-02-02T15:33:00.268Z,23.50
2019-02-02T15:35:29.901Z,23.80
2019-02-02T15:37:59.014Z,23.43
2019-02-02T15:40:31.508Z,24.53
2019-02-02T15:42:59.385Z,22.87
2019-02-02T15:45:29.579Z,23.37
2019-02-02T15:47:58.710Z,23.90
2019-02-02T15:50:28.093Z,23.20
2019-02-02T15:52:57.163Z,23.40
2019-02-02T15:55:26.237Z,24.63
2019-02-02T15:57:55.456Z,23.30
2019-02-02T16:00:26.613Z,23.63
2019-02-02T16:02:55.718Z,23.93
2019-02-02T16:05:25.158Z,22.63
2019-02-02T16:07:54.313Z,23.63
2019-02-02T16:10:25.227Z,24.07
2019-02-02T16:12:54.414Z,25.20
2019-02-02T16:15:23.598Z,24.70
2019-02-02T16:17:52.745Z,25.27
2019-02-02T16:20:33.804Z,24.50
2019-02-02T16:23:02.898Z,24.90
2019-02-02T16:25:32.377Z,24.20
2019-02-02T16:28:01.452Z,24.93
2019-02-02T16:30:30.791Z,25.03
2019-02-02T16:33:00.116Z,26.30
2019-02-02T16:35:29.208Z,26.07
2019-02-02T16:37:58.520Z,26.50
2019-02-02T16:40:28.514Z,26.70
2019-02-02T16:42:57.699Z,26.03
2019-02-02T16:45:28.725Z,26.63
2019-02-02T16:47:57.847Z,26.70
2019-02-02T16:50:27.364Z,27.40
2019-02-02T16:52:56.405Z,26.17
2019-02-02T16:55:25.607Z,26.80
2019-02-02T16:57:56.598Z,27.07
2019-02-02T17:00:30.761Z,25.83
2019-02-02T17:03:00.371Z,28.17
2019-02-02T17:05:29.825Z,27.73
2019-02-02T17:07:59.416Z,27.70
2019-02-02T17:10:30.769Z,26.30
2019-02-02T17:13:00.239Z,26.50
2019-02-02T17:15:30.947Z,27.63
2019-02-02T17:18:00.004Z,26.13
2019-02-02T17:20:32.649Z,28.53
2019-02-02T17:23:04.762Z,26.20
2019-02-02T17:25:33.896Z,27.57
2019-02-02T17:28:06.207Z,29.03
2019-02-02T17:30:35.913Z,28.77
2019-02-02T17:33:08.974Z,27.97
2019-02-02T17:35:38.791Z,27.83
2019-02-02T17:38:08.308Z,28.17
2019-02-02T17:40:37.391Z,27.47
2019-02-02T17:43:06.567Z,29.10
2019-02-02T17:45:35.938Z,29.13
2019-02-02T17:48:06.171Z,29.00
2019-02-02T17:50:35.280Z,30.97
2019-02-02T17:53:04.559Z,29.93
2019-02-02T17:55:33.785Z,28.80
2019-02-02T17:58:02.894Z,30.40
2019-02-02T18:00:59.908Z,31.03
2019-02-02T18:03:29.063Z,29.27
2019-02-02T18:05:58.600Z,30.97
2019-02-02T18:08:27.997Z,29.53
2019-02-02T18:10:57.684Z,30.23
2019-02-02T18:13:26.959Z,31.53
2019-02-02T18:15:56.117Z,31.17
2019-02-02T18:18:25.116Z,32.40
2019-02-02T18:20:54.222Z,28.40
2019-02-02T18:23:23.243Z,28.53
2019-02-02T18:25:52.718Z,32.07
2019-02-02T18:28:22.185Z,29.77
2019-02-02T18:30:51.251Z,31.87
2019-02-02T18:33:20.402Z,30.80
2019-02-02T18:35:49.475Z,29.50
2019-02-02T18:38:19.150Z,29.43
2019-02-02T18:40:48.235Z,29.10
2019-02-02T18:43:17.389Z,29.80
2019-02-02T18:45:46.419Z,30.33
2019-02-02T18:48:15.502Z,30.20
2019-02-02T18:50:44.568Z,31.30
2019-02-02T18:53:13.566Z,29.23
2019-02-02T18:56:01.435Z,31.03
2019-02-02T18:58:30.990Z,28.20
2019-02-02T19:01:00.030Z,28.43
2019-02-02T19:03:29.371Z,26.93
2019-02-02T19:05:58.331Z,27.17
2019-02-02T19:08:27.433Z,25.33
2019-02-02T19:10:56.373Z,27.13
2019-02-02T19:13:25.337Z,24.87
2019-02-02T19:15:54.456Z,26.80
2019-02-02T19:18:23.402Z,26.73
2019-02-02T19:20:52.833Z,25.77
2019-02-02T19:23:25.361Z,25.73
2019-02-02T19:25:52.765Z,27.70
2019-02-02T19:28:21.709Z,34.03
2019-02-02T19:30:53.527Z,25.40
2019-02-02T19:33:21.722Z,26.00
2019-02-02T19:35:51.065Z,28.73
2019-02-02T19:38:20.021Z,25.73
2019-02-02T19:40:49.077Z,25.23
2019-02-02T19:43:18.035Z,24.97
2019-02-02T19:45:47.410Z,25.53
2019-02-02T19:48:16.931Z,26.23
2019-02-02T19:50:45.960Z,25.37
2019-02-02T19:53:18.234Z,26.00
2019-02-02T19:55:47.548Z,24.57
2019-02-02T19:58:16.871Z,25.90
2019-02-02T20:00:46.275Z,26.27
2019-02-02T20:03:15.348Z,25.60
2019-02-02T20:05:44.374Z,26.40
2019-02-02T20:08:13.598Z,26.77
2019-02-02T20:10:42.650Z,27.20
2019-02-02T20:13:11.813Z,28.13
2019-02-02T20:15:41.114Z,27.63
2019-02-02T20:18:10.764Z,28.93
2019-02-02T20:20:40.105Z,27.87
2019-02-02T20:23:09.235Z,29.13
2019-02-02T20:25:38.144Z,28.60
2019-02-02T20:28:07.290Z,29.17
2019-02-02T20:30:36.386Z,29.43
2019-02-02T20:33:05.628Z,30.13
2019-02-02T20:35:41.944Z,29.30
2019-02-02T20:38:05.522Z,30.13
2019-02-02T20:40:34.670Z,31.23
2019-02-02T20:43:03.642Z,32.67
2019-02-02T20:45:36.381Z,31.73
2019-02-02T20:48:05.781Z,33.57
2019-02-02T20:50:36.223Z,31.57
2019-02-02T20:53:05.671Z,34.43
2019-02-02T20:55:38.224Z,32.33
2019-02-02T20:58:07.595Z,35.53
2019-02-02T21:00:37.752Z,32.70
2019-02-02T21:03:07.174Z,33.97
2019-02-02T21:05:36.893Z,32.77
2019-02-02T21:08:06.556Z,42.80
2019-02-02T21:10:36.834Z,33.37
2019-02-02T21:13:06.491Z,34.87
2019-02-02T21:15:35.905Z,45.93
2019-02-02T21:18:05.357Z,35.80
2019-02-02T21:20:35.125Z,36.90
2019-02-02T21:23:04.320Z,34.77
2019-02-02T21:25:34.082Z,36.33
2019-02-02T21:28:03.207Z,36.40
2019-02-02T21:30:34.548Z,34.17
2019-02-02T21:33:04.532Z,35.57
2019-02-02T21:35:34.652Z,44.07
2019-02-02T21:38:04.819Z,36.97
2019-02-02T21:40:35.103Z,41.93
2019-02-02T21:43:06.131Z,36.10
2019-02-02T21:45:36.961Z,36.73
2019-02-02T21:48:07.061Z,37.73
2019-02-02T21:50:37.169Z,47.50
2019-02-02T21:53:07.388Z,39.43
2019-02-02T21:55:36.987Z,36.10
2019-02-02T21:58:06.908Z,37.03
2019-02-02T22:00:38.756Z,37.30
2019-02-02T22:03:09.190Z,45.40
2019-02-02T22:05:39.001Z,34.60
2019-02-02T22:08:09.860Z,36.07
2019-02-02T22:10:39.908Z,36.47
2019-02-02T22:13:09.676Z,40.80
2019-02-02T22:15:39.024Z,35.40
2019-02-02T22:18:08.572Z,53.33
2019-02-02T22:20:37.962Z,43.07
2019-02-02T22:23:07.018Z,35.00
2019-02-02T22:25:36.124Z,36.17
2019-02-02T22:28:05.613Z,34.40
2019-02-02T22:30:36.284Z,34.87
2019-02-02T22:33:05.748Z,36.00
2019-02-02T22:35:35.032Z,36.53
2019-02-02T22:38:04.365Z,34.30
2019-02-02T22:40:33.584Z,33.47
2019-02-02T22:43:03.949Z,36.90
2019-02-02T22:45:33.108Z,33.13
2019-02-02T22:48:02.746Z,32.07
2019-02-02T22:50:32.098Z,33.37
2019-02-02T22:53:01.263Z,32.27
2019-02-02T22:55:30.413Z,33.27
2019-02-02T22:57:59.396Z,32.10
2019-02-02T23:01:02.593Z,32.63
2019-02-02T23:03:58.701Z,29.67
2019-02-02T23:06:49.991Z,28.87
2019-02-02T23:10:00.725Z,34.07
2019-02-02T23:13:12.812Z,36.57
2019-02-02T23:16:44.994Z,26.73
2019-02-02T23:19:14.185Z,26.17
2019-02-02T23:21:45.009Z,28.20
2019-02-02T23:24:14.520Z,25.37
2019-02-02T23:26:43.888Z,29.33
2019-02-02T23:29:13.142Z,29.87
2019-02-02T23:31:42.347Z,73.70
2019-02-02T23:34:11.945Z,43.27
2019-02-02T23:36:50.954Z,34.90
2019-02-02T23:39:13.671Z,33.43
2019-02-02T23:41:42.934Z,28.80
2019-02-02T23:44:12.255Z,28.97
2019-02-02T23:46:41.447Z,28.00
2019-02-02T23:49:10.638Z,28.70
2019-02-02T23:51:39.697Z,28.80
2019-02-02T23:54:09.421Z,29.60
2019-02-02T23:56:38.609Z,30.23
2019-02-02T23:59:07.617Z,32.83
